createdAt,value
2022-08-29T00:03:46.246Z,18.95
2022-08-29T00:10:47.983Z,18.86
2022-08-29T00:17:49.775Z,18.73
2022-08-29T00:24:51.426Z,18.67
2022-08-29T00:31:53.228Z,18.58
2022-08-29T00:38:54.846Z,18.54
2022-08-29T00:46:05.958Z,18.51
2022-08-29T00:53:09.357Z,18.44
2022-08-29T01:00:11.344Z,18.36
2022-08-29T01:07:12.954Z,18.31
2022-08-29T01:14:16.028Z,18.22
2022-08-29T01:21:20.334Z,18.21
2022-08-29T01:28:25.579Z,18.14
2022-08-29T01:35:27.450Z,18.15
2022-08-29T01:42:29.286Z,18.07
2022-08-29T01:49:40.967Z,18.06
2022-08-29T01:56:44.556Z,18.06
2022-08-29T02:03:46.229Z,18.02
2022-08-29T02:10:48.166Z,17.99
2022-08-29T02:17:49.879Z,17.93
2022-08-29T02:24:51.559Z,17.82
2022-08-29T02:31:53.250Z,17.74
2022-08-29T02:38:55.261Z,17.71
2022-08-29T02:45:56.884Z,17.69
2022-08-29T02:52:58.500Z,17.64
2022-08-29T03:00:00.199Z,17.58
2022-08-29T03:07:01.830Z,17.53
2022-08-29T03:14:03.570Z,17.48
2022-08-29T03:21:05.937Z,17.42
2022-08-29T03:28:08.539Z,17.39
2022-08-29T03:35:11.164Z,17.31
2022-08-29T03:42:12.916Z,17.26
2022-08-29T03:49:15.557Z,17.16
2022-08-29T03:56:18.524Z,17.12
2022-08-29T04:03:25.019Z,16.94
2022-08-29T04:10:34.565Z,16.97
2022-08-29T04:17:36.511Z,16.94
2022-08-29T04:24:38.295Z,16.89
2022-08-29T04:31:40.766Z,16.88
2022-08-29T04:38:42.455Z,16.87
2022-08-29T04:45:44.068Z,16.88
2022-08-29T04:52:45.954Z,16.94
2022-08-29T04:59:47.589Z,16.98
2022-08-29T05:06:51.760Z,17.00
2022-08-29T05:13:53.917Z,17.01
2022-08-29T05:20:55.538Z,16.97
2022-08-29T05:27:57.194Z,17.03
2022-08-29T05:35:00.069Z,17.02
2022-08-29T05:42:01.984Z,17.08
2022-08-29T05:49:05.689Z,17.16
2022-08-29T05:56:07.276Z,17.26
2022-08-29T06:03:09.825Z,17.37
2022-08-29T06:10:11.651Z,17.49
2022-08-29T06:17:13.251Z,17.55
2022-08-29T06:24:15.275Z,17.68
2022-08-29T06:31:20.869Z,17.91
2022-08-29T06:38:22.632Z,17.91
2022-08-29T06:45:24.249Z,17.95
2022-08-29T06:52:27.702Z,18.05
2022-08-29T06:59:29.318Z,18.10
2022-08-29T07:06:31.251Z,18.26
2022-08-29T07:13:34.572Z,18.36
2022-08-29T07:20:39.300Z,18.41
2022-08-29T07:27:40.975Z,18.54
2022-08-29T07:34:42.634Z,18.55
2022-08-29T07:41:44.371Z,18.55
2022-08-29T07:48:46.161Z,18.68
2022-08-29T07:55:47.854Z,18.77
2022-08-29T08:02:49.697Z,18.92
2022-08-29T08:09:52.173Z,19.05
2022-08-29T08:16:53.821Z,19.08
2022-08-29T08:32:46.382Z,19.38
2022-08-29T08:39:49.096Z,19.38
2022-08-29T08:46:52.413Z,19.42
2022-08-29T08:53:54.711Z,19.35
2022-08-29T09:01:11.031Z,19.63
2022-08-29T09:08:44.494Z,19.57
2022-08-29T09:15:47.634Z,19.86
2022-08-29T09:22:59.229Z,19.88
2022-08-29T09:30:24.439Z,20.04
2022-08-29T09:37:31.331Z,20.27
2022-08-29T09:44:34.010Z,20.32
2022-08-29T09:51:37.231Z,20.49
2022-08-29T09:58:40.476Z,20.64
2022-08-29T10:05:46.477Z,20.86
2022-08-29T10:13:02.792Z,20.96
2022-08-29T10:20:05.362Z,21.11
2022-08-29T10:27:19.164Z,21.19
2022-08-29T10:34:58.208Z,21.22
2022-08-29T10:42:13.184Z,21.37
2022-08-29T10:49:52.626Z,21.50
2022-08-29T10:56:54.224Z,21.60
2022-08-29T11:04:24.042Z,21.70
2022-08-29T11:11:25.717Z,21.92
2022-08-29T11:18:55.547Z,22.30
2022-08-29T11:25:57.949Z,23.21
2022-08-29T11:33:19.019Z,25.25
2022-08-29T11:40:47.299Z,26.92
2022-08-29T11:47:45.129Z,27.82
2022-08-29T11:54:50.363Z,26.68
2022-08-29T12:01:57.484Z,26.37
2022-08-29T12:09:17.842Z,26.20
2022-08-29T12:16:25.018Z,25.86
2022-08-29T12:23:31.394Z,25.64
2022-08-29T12:30:42.358Z,25.08
2022-08-29T12:38:15.768Z,24.69
2022-08-29T12:45:26.753Z,24.36
2022-08-29T12:52:34.009Z,24.36
2022-08-29T12:59:35.640Z,24.91
2022-08-29T13:06:37.511Z,25.27
2022-08-29T13:13:39.245Z,25.85
2022-08-29T13:20:50.209Z,25.43
2022-08-29T13:28:01.113Z,25.72
2022-08-29T13:35:07.244Z,26.33
2022-08-29T13:42:17.234Z,26.37
2022-08-29T13:49:20.516Z,26.67
2022-08-29T13:56:32.519Z,26.78
2022-08-29T14:03:34.607Z,26.46
2022-08-29T14:10:36.491Z,26.41
2022-08-29T14:17:41.082Z,26.86
2022-08-29T14:24:42.725Z,27.39
2022-08-29T14:31:44.819Z,27.87
2022-08-29T14:38:46.434Z,27.81
2022-08-29T14:45:48.118Z,28.38
2022-08-29T14:52:49.800Z,28.47
2022-08-29T14:59:51.476Z,28.24
2022-08-29T15:06:53.156Z,27.76
2022-08-29T15:13:54.862Z,27.78
2022-08-29T15:20:56.499Z,28.08
2022-08-29T15:27:58.103Z,27.77
2022-08-29T15:34:59.725Z,27.00
2022-08-29T15:42:02.197Z,26.80
2022-08-29T15:49:05.800Z,26.61
2022-08-29T15:56:07.730Z,26.13
2022-08-29T16:03:09.450Z,25.99
2022-08-29T16:10:11.720Z,25.80
2022-08-29T16:17:14.095Z,26.07
2022-08-29T16:24:15.957Z,26.37
2022-08-29T16:31:18.420Z,26.08
2022-08-29T16:38:20.210Z,25.52
2022-08-29T16:45:21.805Z,25.32
2022-08-29T16:52:23.469Z,25.42
2022-08-29T16:59:25.142Z,25.43
2022-08-29T17:06:27.758Z,25.45
2022-08-29T17:13:29.365Z,25.49
2022-08-29T17:20:37.453Z,25.46
2022-08-29T17:27:39.456Z,25.30
2022-08-29T17:34:42.005Z,25.01
2022-08-29T17:41:43.658Z,24.83
2022-08-29T17:48:46.745Z,24.58
2022-08-29T17:55:50.915Z,24.41
2022-08-29T18:02:52.758Z,24.18
2022-08-29T18:09:54.440Z,24.00
2022-08-29T18:16:56.163Z,23.83
2022-08-29T18:23:58.042Z,23.72
2022-08-29T18:30:59.754Z,23.58
2022-08-29T18:38:01.436Z,23.35
2022-08-29T18:45:04.691Z,23.22
2022-08-29T18:52:06.451Z,23.06
2022-08-29T18:59:08.059Z,22.91
2022-08-29T19:06:10.736Z,22.74
2022-08-29T19:13:12.807Z,22.63
2022-08-29T19:20:34.579Z,22.55
2022-08-29T19:27:43.626Z,22.42
2022-08-29T19:34:50.307Z,22.28
2022-08-29T19:41:52.473Z,22.28
2022-08-29T19:48:54.339Z,22.20
2022-08-29T19:55:56.461Z,22.10
2022-08-29T20:02:58.103Z,21.97
2022-08-29T20:09:59.899Z,21.96
2022-08-29T20:17:08.016Z,21.89
2022-08-29T20:24:11.101Z,21.83
2022-08-29T20:31:18.761Z,21.74
2022-08-29T20:38:20.418Z,21.64
2022-08-29T20:45:22.003Z,21.52
2022-08-29T20:52:24.310Z,21.43
2022-08-29T20:59:26.921Z,21.31
2022-08-29T21:06:28.615Z,21.18
2022-08-29T21:13:30.214Z,21.08
2022-08-29T21:20:31.884Z,20.99
2022-08-29T21:27:33.502Z,20.92
2022-08-29T21:34:35.135Z,20.80
2022-08-29T21:41:39.525Z,20.69
2022-08-29T21:48:41.234Z,20.56
2022-08-29T21:55:42.844Z,20.46
2022-08-29T22:02:44.906Z,20.37
2022-08-29T22:09:46.587Z,20.29
2022-08-29T22:16:48.244Z,20.19
2022-08-29T22:23:49.859Z,20.12
2022-08-29T22:30:51.675Z,20.04
2022-08-29T22:37:54.479Z,19.96
2022-08-29T22:45:04.409Z,19.88
2022-08-29T22:52:06.449Z,19.85
2022-08-29T22:59:13.560Z,19.84
2022-08-29T23:06:15.232Z,19.80
2022-08-29T23:13:17.061Z,19.77
2022-08-29T23:20:19.275Z,19.73
2022-08-29T23:27:21.025Z,19.71
2022-08-29T23:34:23.515Z,19.71
2022-08-29T23:41:25.351Z,19.67
2022-08-29T23:48:26.995Z,19.60
2022-08-29T23:55:28.683Z,19.47
